createdAt,value
2023-06-07T00:01:16.713Z,98391.38
2023-06-07T00:06:22.773Z,98397.88
2023-06-07T00:11:27.825Z,98393.25
2023-06-07T00:16:34.093Z,98404.16
2023-06-07T00:21:40.296Z,98396.47
2023-06-07T00:26:44.879Z,98393.63
2023-06-07T00:31:49.236Z,98392.84
2023-06-07T00:36:55.263Z,98391.81
2023-06-07T00:41:59.478Z,98388.38
2023-06-07T00:47:04.977Z,98391.84
2023-06-07T00:52:11.324Z,98383.75
2023-06-07T00:57:17.957Z,98379.69
2023-06-07T01:02:23.269Z,98390.25
2023-06-07T01:07:29.606Z,98385.59
2023-06-07T01:12:35.539Z,98372.63
2023-06-07T01:17:42.444Z,98369.81
2023-06-07T01:22:52.453Z,98366.16
2023-06-07T01:28:01.607Z,98363.53
2023-06-07T01:33:07.766Z,98362.91
2023-06-07T01:38:13.239Z,98374.88
2023-06-07T01:43:22.853Z,98372.66
2023-06-07T01:48:28.350Z,98368.59
2023-06-07T01:53:33.228Z,98374.25
2023-06-07T01:58:51.218Z,98370.81
2023-06-07T02:03:56.960Z,98373.84
2023-06-07T02:09:09.270Z,98370.81
2023-06-07T02:14:15.438Z,98375.06
2023-06-07T02:19:20.452Z,98362.13
2023-06-07T02:24:28.530Z,98371.44
2023-06-07T02:29:34.707Z,98370.81
2023-06-07T02:34:40.643Z,98368.59
2023-06-07T02:39:45.319Z,98356.25
2023-06-07T02:44:51.188Z,98354.25
2023-06-07T02:49:55.814Z,98361.72
2023-06-07T02:55:00.222Z,98362.31
2023-06-07T03:00:10.167Z,98366.59
2023-06-07T03:05:23.865Z,98362.53
2023-06-07T03:10:31.628Z,98368.41
2023-06-07T03:15:38.709Z,98358.69
2023-06-07T03:20:44.699Z,98366.59
2023-06-07T03:25:53.483Z,98367.41
2023-06-07T03:31:05.139Z,98373.66
2023-06-07T03:36:22.225Z,98378.50
2023-06-07T03:41:29.261Z,98379.53
2023-06-07T03:46:38.472Z,98384.59
2023-06-07T03:51:44.327Z,98379.94
2023-06-07T03:56:50.633Z,98385.81
2023-06-07T04:01:58.441Z,98382.56
2023-06-07T04:07:03.521Z,98384.16
2023-06-07T04:12:09.960Z,98378.50
2023-06-07T04:17:16.130Z,98389.00
2023-06-07T04:22:20.828Z,98380.13
2023-06-07T04:27:29.931Z,98387.75
2023-06-07T04:32:39.181Z,98388.72
2023-06-07T04:37:47.048Z,98387.91
2023-06-07T04:43:06.245Z,98387.84
2023-06-07T04:48:14.231Z,98389.00
2023-06-07T04:53:21.108Z,98390.53
2023-06-07T04:58:27.149Z,98392.78
2023-06-07T05:03:34.193Z,98381.38
2023-06-07T05:08:39.722Z,98378.13
2023-06-07T05:13:44.777Z,98386.97
2023-06-07T05:18:51.989Z,98386.66
2023-06-07T05:23:58.952Z,98395.84
2023-06-07T05:29:04.332Z,98396.03
2023-06-07T05:34:11.696Z,98398.38
2023-06-07T05:39:17.901Z,98402.44
2023-06-07T05:44:22.683Z,98405.97
2023-06-07T05:49:28.659Z,98400.41
2023-06-07T05:54:33.427Z,98404.69
2023-06-07T05:59:37.701Z,98396.88
2023-06-07T06:04:43.889Z,98406.13
2023-06-07T06:09:49.067Z,98404.88
2023-06-07T06:14:53.706Z,98409.09
2023-06-07T06:19:59.370Z,98417.16
2023-06-07T06:25:04.804Z,98412.16
2023-06-07T06:30:11.606Z,98412.25
2023-06-07T06:35:17.197Z,98407.84
2023-06-07T06:40:22.264Z,98412.56
2023-06-07T06:45:27.056Z,98419.78
2023-06-07T06:50:34.249Z,98421.38
2023-06-07T06:55:39.158Z,98419.19
2023-06-07T07:00:43.641Z,98421.19
2023-06-07T07:05:49.276Z,98416.03
2023-06-07T07:10:53.730Z,98418.44
2023-06-07T07:15:58.517Z,98426.53
2023-06-07T07:21:04.616Z,98428.81
2023-06-07T07:26:11.458Z,98432.06
2023-06-07T07:31:16.189Z,98437.34
2023-06-07T07:36:22.661Z,98438.47
2023-06-07T07:41:27.995Z,98433.78
2023-06-07T07:46:32.617Z,98432.34
2023-06-07T07:51:38.742Z,98437.25
2023-06-07T07:56:45.784Z,98437.59
2023-06-07T08:01:51.249Z,98438.06
2023-06-07T08:06:56.856Z,98437.91
2023-06-07T08:12:01.538Z,98438.53
2023-06-07T08:17:06.642Z,98442.53
2023-06-07T08:22:12.340Z,98438.69
2023-06-07T08:27:17.153Z,98437.34
2023-06-07T08:32:23.050Z,98443.56
2023-06-07T08:37:28.901Z,98449.47
2023-06-07T08:42:33.873Z,98438.03
2023-06-07T08:47:39.004Z,98438.50
2023-06-07T08:52:52.908Z,98448.06
2023-06-07T08:57:57.213Z,98437.50
2023-06-07T09:03:02.217Z,98429.97
2023-06-07T09:08:08.287Z,98434.03
2023-06-07T09:13:13.394Z,98439.03
2023-06-07T09:18:18.050Z,98434.50
2023-06-07T09:23:23.537Z,98444.53
2023-06-07T09:28:27.875Z,98442.38
2023-06-07T09:33:35.873Z,98447.44
2023-06-07T09:38:43.227Z,98438.72
2023-06-07T09:43:50.899Z,98435.28
2023-06-07T09:48:56.037Z,98439.56
2023-06-07T09:54:03.210Z,98438.66
2023-06-07T09:59:10.975Z,98427.47
2023-06-07T10:04:16.089Z,98425.47
2023-06-07T10:09:25.005Z,98421.56
2023-06-07T10:14:34.438Z,98422.84
2023-06-07T10:19:47.403Z,98423.31
2023-06-07T10:25:04.086Z,98419.41
2023-06-07T10:30:13.316Z,98420.38
2023-06-07T10:35:19.460Z,98417.28
2023-06-07T10:40:27.134Z,98414.50
2023-06-07T10:45:31.532Z,98406.22
2023-06-07T10:50:49.242Z,98413.06
2023-06-07T10:55:55.368Z,98413.78
2023-06-07T11:01:27.431Z,98414.38
2023-06-07T11:06:33.971Z,98412.41
2023-06-07T11:11:48.466Z,98406.72
2023-06-07T11:16:52.955Z,98405.25
2023-06-07T11:22:08.964Z,98405.34
2023-06-07T11:27:15.374Z,98404.44
2023-06-07T11:32:20.369Z,98394.63
2023-06-07T11:37:25.770Z,98397.25
2023-06-07T11:42:32.833Z,98398.13
2023-06-07T11:47:37.787Z,98405.88
2023-06-07T11:52:42.246Z,98390.38
2023-06-07T11:57:48.922Z,98389.28
2023-06-07T12:02:54.694Z,98388.66
2023-06-07T12:08:01.498Z,98383.31
2023-06-07T12:13:20.114Z,98369.47
2023-06-07T12:18:28.297Z,98359.56
2023-06-07T12:23:33.510Z,98356.84
2023-06-07T12:28:41.540Z,98366.28
2023-06-07T12:34:00.180Z,98360.31
2023-06-07T12:39:06.736Z,98348.06
2023-06-07T12:44:12.956Z,98351.81
2023-06-07T12:49:17.591Z,98352.63
2023-06-07T12:54:22.115Z,98349.72
2023-06-07T12:59:27.921Z,98336.97
2023-06-07T13:04:32.902Z,98324.31
2023-06-07T13:09:38.780Z,98334.28
2023-06-07T13:14:44.823Z,98330.41
2023-06-07T13:19:51.081Z,98318.97
2023-06-07T13:24:55.712Z,98317.59
2023-06-07T13:30:01.516Z,98320.97
2023-06-07T13:35:07.230Z,98315.16
2023-06-07T13:40:12.283Z,98327.59
2023-06-07T13:45:18.254Z,98336.16
2023-06-07T13:50:22.677Z,98329.75
2023-06-07T13:55:27.171Z,98323.13
2023-06-07T14:00:33.094Z,98319.53
2023-06-07T14:05:39.560Z,98315.66
2023-06-07T14:10:43.776Z,98326.91
2023-06-07T14:15:50.646Z,98345.16
2023-06-07T14:20:55.292Z,98338.34
2023-06-07T14:25:59.883Z,98329.28
2023-06-07T14:31:05.557Z,98320.28
2023-06-07T14:36:09.795Z,98319.50
2023-06-07T14:41:14.271Z,98304.19
2023-06-07T14:46:20.277Z,98304.50
2023-06-07T14:51:27.375Z,98304.56
2023-06-07T14:56:31.577Z,98304.06
2023-06-07T15:01:37.288Z,98306.13
2023-06-07T15:06:41.989Z,98311.28
2023-06-07T15:11:46.324Z,98312.28
2023-06-07T15:16:51.926Z,98309.53
2023-06-07T15:21:58.985Z,98303.81
2023-06-07T15:27:03.548Z,98295.09
2023-06-07T15:32:10.011Z,98289.03
2023-06-07T15:37:14.490Z,98285.69
2023-06-07T15:42:19.474Z,98295.66
2023-06-07T15:47:25.113Z,98293.34
2023-06-07T15:52:29.616Z,98282.38
2023-06-07T15:57:34.047Z,98288.78
2023-06-07T16:02:39.906Z,98270.31
2023-06-07T16:07:44.137Z,98288.78
2023-06-07T16:12:50.898Z,98298.94
2023-06-07T16:17:58.087Z,98302.38
2023-06-07T16:23:02.670Z,98306.03
2023-06-07T16:28:07.257Z,98324.00
2023-06-07T16:33:13.303Z,98305.88
2023-06-07T16:38:18.121Z,98291.94
2023-06-07T16:43:22.490Z,98293.97
2023-06-07T16:48:28.238Z,98302.81
2023-06-07T16:53:32.721Z,98300.97
2023-06-07T16:58:37.066Z,98306.28
2023-06-07T17:03:42.976Z,98312.69
2023-06-07T17:08:48.773Z,98311.28
2023-06-07T17:13:53.649Z,98310.47
2023-06-07T17:18:59.469Z,98314.38
2023-06-07T17:24:04.014Z,98314.13
2023-06-07T17:29:27.571Z,98318.88
2023-06-07T17:34:34.412Z,98327.09
2023-06-07T17:39:39.136Z,98328.88
2023-06-07T17:44:43.587Z,98327.88
2023-06-07T17:49:49.266Z,98340.53
2023-06-07T17:54:53.763Z,98329.16
2023-06-07T17:59:57.971Z,98332.41
2023-06-07T18:05:04.806Z,98335.16
2023-06-07T18:10:10.025Z,98337.22
2023-06-07T18:15:14.293Z,98330.59
2023-06-07T18:20:20.175Z,98329.56
2023-06-07T18:25:24.703Z,98331.50
2023-06-07T18:30:29.481Z,98341.28
2023-06-07T18:35:35.902Z,98352.28
2023-06-07T18:40:40.542Z,98354.59
2023-06-07T18:45:44.926Z,98369.19
2023-06-07T18:50:51.165Z,98374.31
2023-06-07T18:55:55.833Z,98388.09
2023-06-07T19:01:00.340Z,98389.72
2023-06-07T19:06:06.116Z,98411.09
2023-06-07T19:11:12.216Z,98412.91
2023-06-07T19:16:16.561Z,98404.22
2023-06-07T19:21:22.483Z,98399.31
2023-06-07T19:26:29.648Z,98401.59
2023-06-07T19:31:34.821Z,98389.41
2023-06-07T19:36:40.503Z,98384.56
2023-06-07T19:41:45.230Z,98367.53
2023-06-07T19:46:49.782Z,98361.09
2023-06-07T19:51:55.837Z,98369.81
2023-06-07T19:56:59.992Z,98379.59
2023-06-07T20:02:05.343Z,98378.84
2023-06-07T20:07:12.167Z,98378.56
2023-06-07T20:12:16.755Z,98392.94
2023-06-07T20:17:26.740Z,98389.38
2023-06-07T20:22:34.454Z,98392.00
2023-06-07T20:27:38.755Z,98391.84
2023-06-07T20:32:43.057Z,98392.72
2023-06-07T20:37:49.114Z,98387.28
2023-06-07T20:42:54.651Z,98403.63
2023-06-07T20:47:59.056Z,98390.84
2023-06-07T20:53:04.864Z,98389.56
2023-06-07T20:58:09.297Z,98390.63
2023-06-07T21:03:13.689Z,98385.19
2023-06-07T21:08:19.728Z,98389.88
2023-06-07T21:13:24.840Z,98381.22
2023-06-07T21:18:30.016Z,98383.50
2023-06-07T21:23:35.838Z,98371.66
2023-06-07T21:28:40.253Z,98376.53
2023-06-07T21:34:00.032Z,98376.91
2023-06-07T21:39:06.217Z,98369.22
2023-06-07T21:44:10.852Z,98365.66
2023-06-07T21:49:15.104Z,98364.16
2023-06-07T21:54:21.154Z,98369.03
2023-06-07T21:59:25.678Z,98366.22
2023-06-07T22:04:30.230Z,98372.28
2023-06-07T22:09:36.629Z,98368.69
2023-06-07T22:14:42.741Z,98369.53
2023-06-07T22:19:47.047Z,98378.44
2023-06-07T22:24:53.160Z,98372.19
2023-06-07T22:29:58.618Z,98369.97
2023-06-07T22:35:05.902Z,98375.22
2023-06-07T22:40:13.177Z,98376.84
2023-06-07T22:45:17.727Z,98382.78
2023-06-07T22:50:27.153Z,98383.34
2023-06-07T22:55:33.716Z,98378.31
2023-06-07T23:00:38.332Z,98384.19
2023-06-07T23:05:43.708Z,98383.56
2023-06-07T23:10:52.896Z,98386.81
2023-06-07T23:15:58.498Z,98385.41
2023-06-07T23:21:05.005Z,98385.97
2023-06-07T23:26:11.017Z,98375.84
2023-06-07T23:31:16.291Z,98378.88
2023-06-07T23:36:21.608Z,98371.19
2023-06-07T23:41:27.640Z,98365.09
2023-06-07T23:46:32.634Z,98374.81
2023-06-07T23:51:36.907Z,98369.53
2023-06-07T23:56:42.788Z,98371.94
